createdAt,value
2022-10-19T00:02:25.816Z,9.50
2022-10-19T00:04:52.429Z,8.30
2022-10-19T00:07:19.049Z,8.80
2022-10-19T00:09:45.929Z,8.63
2022-10-19T00:12:13.369Z,9.10
2022-10-19T00:14:39.962Z,8.95
2022-10-19T00:17:06.749Z,10.15
2022-10-19T00:19:34.074Z,7.82
2022-10-19T00:22:00.664Z,8.80
2022-10-19T00:24:27.382Z,7.80
2022-10-19T00:26:53.993Z,8.07
2022-10-19T00:29:20.634Z,8.77
2022-10-19T00:31:52.088Z,9.10
2022-10-19T00:34:19.195Z,8.82
2022-10-19T00:36:46.606Z,8.82
2022-10-19T00:39:15.414Z,8.93
2022-10-19T00:41:42.689Z,8.10
2022-10-19T00:44:12.271Z,8.35
2022-10-19T00:46:41.528Z,7.57
2022-10-19T00:49:12.965Z,8.88
2022-10-19T00:51:46.038Z,8.30
2022-10-19T00:54:13.199Z,7.60
2022-10-19T00:56:41.423Z,9.10
2022-10-19T00:59:08.981Z,8.45
2022-10-19T01:01:35.814Z,8.85
2022-10-19T01:04:03.386Z,8.93
2022-10-19T01:06:30.282Z,6.97
2022-10-19T01:08:56.985Z,9.27
2022-10-19T01:11:48.704Z,8.98
2022-10-19T01:14:33.597Z,9.27
2022-10-19T01:17:00.183Z,8.75
2022-10-19T01:19:40.249Z,8.38
2022-10-19T01:22:23.421Z,8.95
2022-10-19T01:25:21.797Z,10.18
2022-10-19T01:28:11.718Z,8.45
2022-10-19T01:31:36.877Z,8.50
2022-10-19T01:34:05.126Z,9.40
2022-10-19T01:36:46.859Z,9.45
2022-10-19T01:39:19.236Z,8.65
2022-10-19T01:41:54.447Z,9.35
2022-10-19T01:47:03.117Z,9.00
2022-10-19T01:49:34.764Z,9.15
2022-10-19T01:52:04.428Z,10.60
2022-10-19T01:54:35.412Z,10.85
2022-10-19T01:57:03.169Z,9.82
2022-10-19T01:59:30.573Z,10.18
2022-10-19T02:01:57.625Z,10.35
2022-10-19T02:04:25.658Z,9.52
2022-10-19T02:06:53.488Z,9.18
2022-10-19T02:09:20.410Z,9.63
2022-10-19T02:11:56.119Z,9.80
2022-10-19T02:14:27.830Z,10.43
2022-10-19T02:17:10.526Z,10.18
2022-10-19T02:19:37.572Z,10.23
2022-10-19T02:22:04.541Z,10.57
2022-10-19T02:24:31.354Z,12.60
2022-10-19T02:26:58.373Z,11.13
2022-10-19T02:29:24.974Z,11.80
2022-10-19T02:31:51.589Z,8.35
2022-10-19T02:34:18.292Z,11.07
2022-10-19T02:36:45.068Z,11.95
2022-10-19T02:39:11.742Z,10.85
2022-10-19T02:41:47.161Z,11.15
2022-10-19T02:44:23.963Z,12.75
2022-10-19T02:46:55.667Z,10.48
2022-10-19T02:49:22.590Z,10.25
2022-10-19T02:52:00.738Z,10.45
2022-10-19T02:54:27.617Z,10.88
2022-10-19T02:56:54.852Z,10.93
2022-10-19T02:59:21.534Z,9.32
2022-10-19T03:01:48.189Z,12.95
2022-10-19T03:04:14.966Z,11.00
2022-10-19T03:06:41.714Z,11.95
2022-10-19T03:09:08.793Z,10.02
2022-10-19T03:11:35.462Z,11.10
2022-10-19T03:14:02.203Z,12.05
2022-10-19T03:16:28.812Z,11.63
2022-10-19T03:18:55.426Z,11.82
2022-10-19T03:21:22.052Z,11.68
2022-10-19T03:23:48.682Z,11.48
2022-10-19T03:26:16.498Z,11.60
2022-10-19T03:28:43.384Z,10.82
2022-10-19T03:31:10.210Z,11.70
2022-10-19T03:33:36.795Z,11.90
2022-10-19T03:36:34.057Z,11.65
2022-10-19T03:39:03.673Z,13.73
2022-10-19T03:41:32.911Z,12.13
2022-10-19T03:46:27.034Z,12.82
2022-10-19T03:48:54.133Z,11.95
2022-10-19T03:51:25.939Z,11.48
2022-10-19T03:54:13.458Z,13.80
2022-10-19T03:56:40.142Z,12.63
2022-10-19T03:59:07.454Z,11.88
2022-10-19T04:01:39.714Z,13.98
2022-10-19T04:04:10.059Z,13.63
2022-10-19T04:06:38.565Z,13.25
2022-10-19T04:09:06.605Z,13.38
2022-10-19T04:11:34.842Z,13.57
2022-10-19T04:14:02.351Z,12.50
2022-10-19T04:16:30.349Z,13.15
2022-10-19T04:18:57.155Z,13.18
2022-10-19T04:21:26.169Z,12.93
2022-10-19T04:23:56.950Z,12.65
2022-10-19T04:26:23.773Z,12.88
2022-10-19T04:28:50.529Z,13.45
2022-10-19T04:31:17.306Z,12.77
2022-10-19T04:33:44.122Z,13.43
2022-10-19T04:36:11.947Z,13.48
2022-10-19T04:38:39.107Z,13.10
2022-10-19T04:41:11.269Z,12.43
2022-10-19T04:43:38.328Z,14.68
2022-10-19T04:46:10.972Z,15.32
2022-10-19T04:48:38.774Z,14.13
2022-10-19T04:51:06.280Z,14.63
2022-10-19T04:53:33.726Z,15.30
2022-10-19T04:56:00.877Z,13.52
2022-10-19T04:58:27.559Z,15.65
2022-10-19T05:00:54.200Z,14.45
2022-10-19T05:03:20.873Z,15.10
2022-10-19T05:05:47.567Z,15.65
2022-10-19T05:08:14.295Z,16.23
2022-10-19T05:10:44.258Z,16.15
2022-10-19T05:13:14.233Z,14.02
2022-10-19T05:15:40.855Z,16.70
2022-10-19T05:18:07.572Z,17.20
2022-10-19T05:20:34.244Z,15.80
2022-10-19T05:23:06.138Z,17.15
2022-10-19T05:25:34.070Z,19.00
2022-10-19T05:28:00.743Z,17.67
2022-10-19T05:30:27.354Z,16.83
2022-10-19T05:32:54.059Z,14.07
2022-10-19T05:35:22.618Z,15.10
2022-10-19T05:37:54.744Z,12.90
2022-10-19T05:40:21.480Z,11.45
2022-10-19T05:42:48.191Z,12.55
2022-10-19T05:45:15.033Z,12.85
2022-10-19T05:47:41.598Z,13.95
2022-10-19T05:50:08.681Z,13.35
2022-10-19T05:52:35.284Z,13.27
2022-10-19T05:55:01.945Z,13.65
2022-10-19T05:57:28.647Z,13.18
2022-10-19T05:59:58.386Z,12.63
2022-10-19T06:02:27.931Z,11.25
2022-10-19T06:04:54.527Z,12.80
2022-10-19T06:07:21.122Z,12.80
2022-10-19T06:09:48.094Z,10.63
2022-10-19T06:12:16.219Z,12.00
2022-10-19T06:14:43.229Z,11.32
2022-10-19T06:17:09.915Z,12.60
2022-10-19T06:19:36.841Z,12.40
2022-10-19T06:22:03.529Z,10.20
2022-10-19T06:24:30.312Z,11.30
2022-10-19T06:26:57.014Z,10.77
2022-10-19T06:29:23.774Z,8.68
2022-10-19T06:31:50.580Z,8.73
2022-10-19T06:34:17.321Z,9.48
2022-10-19T06:36:44.095Z,7.72
2022-10-19T06:39:13.447Z,6.15
2022-10-19T06:41:40.179Z,7.20
2022-10-19T06:44:06.812Z,7.50
2022-10-19T06:46:33.989Z,5.18
2022-10-19T06:49:01.876Z,6.57
2022-10-19T06:51:29.842Z,5.43
2022-10-19T06:53:57.102Z,4.65
2022-10-19T06:56:24.944Z,4.70
2022-10-19T06:58:51.867Z,5.35
2022-10-19T07:01:18.620Z,4.47
2022-10-19T07:03:45.406Z,5.75
2022-10-19T07:06:13.335Z,5.80
2022-10-19T07:08:42.072Z,7.22
2022-10-19T07:11:11.516Z,5.40
2022-10-19T07:13:38.819Z,3.97
2022-10-19T07:16:08.539Z,4.72
2022-10-19T07:18:36.026Z,3.78
2022-10-19T07:21:05.193Z,3.85
2022-10-19T07:23:33.475Z,4.28
2022-10-19T07:26:07.145Z,4.25
2022-10-19T07:28:34.482Z,4.70
2022-10-19T07:31:08.918Z,5.57
2022-10-19T07:33:35.809Z,6.38
2022-10-19T07:36:04.415Z,3.65
2022-10-19T07:38:32.035Z,5.45
2022-10-19T07:41:10.346Z,4.20
2022-10-19T07:43:36.977Z,4.72
2022-10-19T07:46:17.615Z,3.65
2022-10-19T07:48:44.553Z,3.70
2022-10-19T07:51:12.607Z,3.75
2022-10-19T07:53:39.753Z,3.65
2022-10-19T07:56:09.244Z,3.35
2022-10-19T07:58:36.708Z,3.75
2022-10-19T08:01:14.893Z,3.90
2022-10-19T08:06:28.760Z,3.70
2022-10-19T08:08:55.936Z,3.15
2022-10-19T08:11:25.464Z,3.65
2022-10-19T08:13:52.647Z,3.70
2022-10-19T08:16:28.150Z,4.32
2022-10-19T08:19:00.293Z,2.70
2022-10-19T08:21:27.975Z,3.45
2022-10-19T08:23:54.994Z,3.03
2022-10-19T08:26:22.074Z,2.88
2022-10-19T08:28:48.942Z,2.97
2022-10-19T08:31:18.312Z,3.55
2022-10-19T08:33:45.263Z,3.00
2022-10-19T08:36:13.553Z,2.90
2022-10-19T08:38:41.442Z,2.97
2022-10-19T08:41:26.437Z,2.67
2022-10-19T08:43:58.595Z,2.20
2022-10-19T08:46:33.763Z,2.25
2022-10-19T08:51:28.445Z,2.10
2022-10-19T08:53:57.914Z,1.67
2022-10-19T08:56:50.895Z,1.90
2022-10-19T08:59:30.877Z,2.35
2022-10-19T09:02:12.526Z,2.38
2022-10-19T09:04:47.968Z,2.67
2022-10-19T09:07:17.493Z,2.88
2022-10-19T09:09:52.115Z,2.67
2022-10-19T09:12:24.689Z,3.20
2022-10-19T09:14:59.208Z,2.33
2022-10-19T09:17:26.068Z,2.63
2022-10-19T09:19:53.030Z,2.28
2022-10-19T09:22:25.123Z,2.30
2022-10-19T09:24:53.314Z,2.70
2022-10-19T09:27:40.170Z,2.83
2022-10-19T09:30:16.002Z,2.60
2022-10-19T09:32:42.849Z,3.20
2022-10-19T09:35:29.898Z,3.65
2022-10-19T09:37:57.028Z,2.38
2022-10-19T09:40:29.279Z,2.88
2022-10-19T09:42:59.445Z,3.92
2022-10-19T09:45:34.165Z,2.38
2022-10-19T09:48:12.763Z,2.88
2022-10-19T09:50:43.433Z,2.70
2022-10-19T09:53:20.626Z,3.15
2022-10-19T09:55:51.384Z,2.75
2022-10-19T09:58:20.268Z,3.08
2022-10-19T10:00:52.375Z,3.28
2022-10-19T10:03:40.547Z,3.30
2022-10-19T10:06:17.610Z,3.15
2022-10-19T10:08:47.673Z,3.17
2022-10-19T10:11:25.897Z,2.85
2022-10-19T10:13:54.767Z,3.78
2022-10-19T10:16:23.118Z,3.35
2022-10-19T10:18:58.639Z,3.30
2022-10-19T10:21:28.867Z,2.83
2022-10-19T10:24:11.897Z,2.58
2022-10-19T10:26:46.466Z,3.20
2022-10-19T10:29:29.165Z,2.40
2022-10-19T10:32:06.213Z,3.35
2022-10-19T10:34:45.669Z,2.35
2022-10-19T10:37:43.774Z,2.53
2022-10-19T10:40:28.456Z,2.40
2022-10-19T10:42:58.250Z,2.10
2022-10-19T10:45:34.606Z,1.77
2022-10-19T10:48:15.561Z,2.30
2022-10-19T10:50:42.198Z,2.03
2022-10-19T10:53:31.500Z,2.15
2022-10-19T10:55:58.280Z,1.90
2022-10-19T10:58:47.683Z,2.00
2022-10-19T11:01:24.538Z,1.88
2022-10-19T11:03:56.113Z,2.05
2022-10-19T11:06:26.069Z,2.25
2022-10-19T11:09:04.860Z,2.28
2022-10-19T11:11:37.189Z,2.13
2022-10-19T11:14:22.639Z,1.52
2022-10-19T11:16:50.625Z,2.30
2022-10-19T11:19:35.357Z,1.75
2022-10-19T11:22:17.006Z,1.53
2022-10-19T11:25:02.448Z,1.58
2022-10-19T11:28:08.071Z,2.47
2022-10-19T11:30:42.500Z,2.08
2022-10-19T11:36:33.424Z,2.15
2022-10-19T11:39:18.668Z,2.92
2022-10-19T11:42:00.560Z,2.35
2022-10-19T11:44:51.616Z,3.13
2022-10-19T11:47:43.205Z,1.83
2022-10-19T11:50:25.112Z,2.00
2022-10-19T11:53:16.734Z,2.05
2022-10-19T11:56:11.824Z,2.58
2022-10-19T11:58:38.433Z,2.37
2022-10-19T12:01:20.986Z,2.65
2022-10-19T12:04:15.070Z,2.45
2022-10-19T12:06:56.271Z,2.20
2022-10-19T12:09:28.739Z,3.20
2022-10-19T12:12:15.961Z,1.80
2022-10-19T12:14:44.234Z,2.35
2022-10-19T12:17:15.458Z,2.67
2022-10-19T12:19:48.225Z,2.05
2022-10-19T12:22:22.779Z,1.90
2022-10-19T12:24:53.297Z,2.00
2022-10-19T12:27:29.195Z,2.65
2022-10-19T12:29:58.938Z,2.50
2022-10-19T12:32:27.444Z,3.05
2022-10-19T12:35:04.642Z,2.88
2022-10-19T12:37:41.848Z,3.10
2022-10-19T12:40:23.495Z,2.55
2022-10-19T12:42:57.309Z,1.73
2022-10-19T12:45:37.022Z,1.80
2022-10-19T12:48:12.676Z,2.15
2022-10-19T12:50:48.452Z,2.20
2022-10-19T12:53:49.164Z,2.53
2022-10-19T12:56:19.990Z,2.30
2022-10-19T12:58:47.603Z,2.38
2022-10-19T13:01:23.881Z,2.05
2022-10-19T13:03:54.538Z,2.85
2022-10-19T13:06:24.210Z,2.15
2022-10-19T13:08:53.604Z,2.00
2022-10-19T13:11:20.754Z,2.65
2022-10-19T13:14:06.526Z,2.28
2022-10-19T13:16:56.770Z,2.63
2022-10-19T13:19:23.754Z,2.78
2022-10-19T13:22:03.382Z,2.40
2022-10-19T13:24:35.879Z,2.58
2022-10-19T13:27:02.468Z,2.28
2022-10-19T13:29:40.915Z,2.30
2022-10-19T13:32:37.200Z,2.50
2022-10-19T13:35:23.096Z,2.42
2022-10-19T13:38:12.172Z,2.88
2022-10-19T13:40:56.012Z,3.50
2022-10-19T13:43:29.581Z,2.90
2022-10-19T13:46:01.997Z,3.78
2022-10-19T13:48:34.861Z,2.47
2022-10-19T13:51:27.101Z,2.92
2022-10-19T13:54:20.159Z,3.35
2022-10-19T13:57:34.446Z,3.03
2022-10-19T14:00:03.803Z,3.88
2022-10-19T14:03:02.183Z,3.33
2022-10-19T14:05:52.710Z,3.22
2022-10-19T14:08:38.101Z,3.33
2022-10-19T14:11:16.230Z,4.53
2022-10-19T14:13:43.523Z,5.80
2022-10-19T14:16:20.932Z,4.68
2022-10-19T14:18:57.408Z,4.35
2022-10-19T14:21:32.771Z,4.15
2022-10-19T14:23:59.955Z,3.67
2022-10-19T14:26:31.114Z,3.28
2022-10-19T14:28:59.123Z,3.13
2022-10-19T14:31:31.958Z,2.65
2022-10-19T14:34:02.352Z,2.47
2022-10-19T14:36:35.308Z,3.85
2022-10-19T14:39:02.008Z,3.45
2022-10-19T14:41:28.660Z,2.55
2022-10-19T14:43:56.587Z,3.00
2022-10-19T14:46:34.404Z,3.92
2022-10-19T14:49:03.338Z,2.88
2022-10-19T14:51:40.500Z,3.13
2022-10-19T14:54:32.240Z,3.05
2022-10-19T14:57:02.105Z,3.15
2022-10-19T14:59:38.484Z,3.30
2022-10-19T15:02:22.666Z,4.32
2022-10-19T15:04:49.971Z,4.38
2022-10-19T15:07:30.231Z,4.15
2022-10-19T15:09:59.157Z,3.92
2022-10-19T15:12:28.969Z,2.88
2022-10-19T15:14:56.266Z,2.90
2022-10-19T15:17:28.415Z,2.95
2022-10-19T15:19:56.259Z,3.28
2022-10-19T15:22:28.104Z,3.28
2022-10-19T15:25:06.649Z,3.80
2022-10-19T15:27:34.568Z,3.92
2022-10-19T15:30:29.702Z,4.00
2022-10-19T15:33:10.688Z,3.23
2022-10-19T15:35:39.081Z,4.05
2022-10-19T15:38:26.062Z,3.00
2022-10-19T15:41:00.739Z,3.13
2022-10-19T15:43:30.358Z,3.30
2022-10-19T15:46:04.442Z,4.18
2022-10-19T15:48:52.317Z,3.78
2022-10-19T15:51:24.774Z,3.40
2022-10-19T15:53:59.395Z,3.30
2022-10-19T15:56:27.719Z,4.18
2022-10-19T15:58:59.011Z,3.53
2022-10-19T16:01:28.274Z,3.33
2022-10-19T16:03:55.251Z,3.45
2022-10-19T16:06:25.448Z,2.65
2022-10-19T16:08:54.160Z,3.45
2022-10-19T16:11:22.984Z,2.60
2022-10-19T16:13:49.647Z,2.70
2022-10-19T16:16:25.033Z,2.72
2022-10-19T16:18:52.388Z,3.20
2022-10-19T16:21:26.210Z,3.33
2022-10-19T16:23:52.980Z,3.88
2022-10-19T16:26:19.741Z,3.53
2022-10-19T16:28:48.677Z,2.60
2022-10-19T16:31:15.814Z,2.97
2022-10-19T16:33:42.454Z,3.10
2022-10-19T16:36:09.404Z,3.28
2022-10-19T16:38:36.777Z,3.35
2022-10-19T16:41:06.161Z,2.70
2022-10-19T16:43:33.025Z,3.13
2022-10-19T16:45:59.841Z,3.20
2022-10-19T16:48:27.207Z,2.95
2022-10-19T16:51:28.820Z,3.33
2022-10-19T16:53:57.386Z,4.13
2022-10-19T16:56:25.806Z,3.88
2022-10-19T16:59:03.135Z,3.83
2022-10-19T17:01:30.709Z,3.47
2022-10-19T17:03:57.865Z,3.35
2022-10-19T17:06:25.252Z,4.32
2022-10-19T17:09:29.868Z,4.15
2022-10-19T17:11:39.703Z,4.65
2022-10-19T17:14:08.782Z,6.72
2022-10-19T17:16:36.499Z,6.45
2022-10-19T17:19:04.837Z,7.18
2022-10-19T17:21:33.876Z,8.38
2022-10-19T17:24:02.550Z,4.00
2022-10-19T17:26:30.421Z,3.63
2022-10-19T17:28:57.481Z,2.42
2022-10-19T17:31:24.183Z,2.40
2022-10-19T17:33:51.068Z,3.03
2022-10-19T17:36:25.282Z,2.53
2022-10-19T17:38:56.616Z,2.53
2022-10-19T17:41:23.782Z,2.72
2022-10-19T17:43:54.224Z,2.92
2022-10-19T17:46:23.023Z,2.78
2022-10-19T17:48:49.819Z,2.70
2022-10-19T17:51:19.530Z,3.50
2022-10-19T17:53:47.927Z,2.85
2022-10-19T17:56:19.628Z,2.90
2022-10-19T17:58:46.440Z,2.55
2022-10-19T18:01:14.410Z,2.78
2022-10-19T18:03:41.186Z,2.03
2022-10-19T18:06:13.612Z,1.13
2022-10-19T18:08:45.172Z,1.20
2022-10-19T18:11:14.362Z,0.95
2022-10-19T18:13:41.599Z,0.80
2022-10-19T18:16:11.088Z,0.80
2022-10-19T18:18:39.878Z,0.73
2022-10-19T18:21:10.407Z,0.98
2022-10-19T18:23:38.120Z,0.98
2022-10-19T18:26:07.373Z,0.70
2022-10-19T18:28:34.534Z,0.60
2022-10-19T18:31:13.265Z,0.80
2022-10-19T18:33:40.426Z,0.70
2022-10-19T18:36:08.872Z,0.80
2022-10-19T18:38:35.587Z,0.68
2022-10-19T18:41:03.890Z,0.90
2022-10-19T18:43:30.692Z,0.82
2022-10-19T18:45:59.157Z,0.80
2022-10-19T18:48:27.551Z,0.93
2022-10-19T18:50:54.790Z,0.77
2022-10-19T18:53:22.050Z,1.13
2022-10-19T18:56:05.887Z,1.20
2022-10-19T18:58:33.810Z,1.20
2022-10-19T19:01:13.660Z,1.70
2022-10-19T19:03:42.502Z,1.30
2022-10-19T19:06:14.749Z,1.98
2022-10-19T19:08:41.706Z,1.98
2022-10-19T19:11:14.153Z,1.98
2022-10-19T19:13:41.381Z,1.17
2022-10-19T19:16:09.444Z,1.30
2022-10-19T19:18:36.181Z,1.35
2022-10-19T19:21:04.215Z,1.23
2022-10-19T19:23:31.142Z,2.13
2022-10-19T19:25:57.835Z,1.45
2022-10-19T19:28:24.701Z,3.05
2022-10-19T19:30:51.316Z,1.48
2022-10-19T19:33:17.993Z,1.45
2022-10-19T19:35:45.908Z,1.20
2022-10-19T19:38:13.649Z,1.90
2022-10-19T19:40:45.186Z,2.38
2022-10-19T19:43:13.481Z,1.58
2022-10-19T19:45:41.200Z,2.05
2022-10-19T19:48:09.034Z,1.70
2022-10-19T19:50:37.521Z,1.40
2022-10-19T19:53:04.963Z,1.65
2022-10-19T19:55:36.783Z,2.13
2022-10-19T19:58:05.630Z,2.03
2022-10-19T20:00:32.348Z,2.33
2022-10-19T20:02:59.822Z,1.83
2022-10-19T20:05:27.188Z,2.08
2022-10-19T20:07:53.890Z,1.33
2022-10-19T20:10:20.567Z,1.67
2022-10-19T20:12:47.755Z,2.17
2022-10-19T20:15:16.561Z,3.53
2022-10-19T20:17:43.517Z,1.73
2022-10-19T20:20:11.610Z,2.20
2022-10-19T20:22:38.434Z,2.30
2022-10-19T20:25:05.526Z,1.92
2022-10-19T20:27:35.588Z,1.85
2022-10-19T20:30:02.540Z,1.75
2022-10-19T20:32:29.583Z,1.95
2022-10-19T20:34:56.201Z,2.65
2022-10-19T20:37:23.620Z,2.08
2022-10-19T20:39:50.348Z,2.38
2022-10-19T20:42:18.291Z,2.10
2022-10-19T20:44:45.163Z,2.10
2022-10-19T20:47:12.118Z,2.33
2022-10-19T20:49:38.753Z,2.08
2022-10-19T20:52:05.408Z,2.47
